createdAt,value
2018-06-10T00:01:16.800Z,14.10
2018-06-10T00:03:44.732Z,12.83
2018-06-10T00:06:12.666Z,9.23
2018-06-10T00:08:40.747Z,9.60
2018-06-10T00:11:08.666Z,8.90
2018-06-10T00:13:36.690Z,9.50
2018-06-10T00:16:04.700Z,9.20
2018-06-10T00:18:32.612Z,13.50
2018-06-10T00:21:00.438Z,12.40
2018-06-10T00:23:28.376Z,13.83
2018-06-10T00:25:56.339Z,11.97
2018-06-10T00:28:29.748Z,9.83
2018-06-10T00:30:57.761Z,16.43
2018-06-10T00:33:25.770Z,7.93
2018-06-10T00:35:53.837Z,12.63
2018-06-10T00:38:21.890Z,10.10
2018-06-10T00:40:50.179Z,9.77
2018-06-10T00:43:18.149Z,14.00
2018-06-10T00:45:46.249Z,12.03
2018-06-10T00:48:14.265Z,11.47
2018-06-10T00:50:42.295Z,14.93
2018-06-10T00:53:10.660Z,9.77
2018-06-10T00:55:39.401Z,14.43
2018-06-10T00:58:07.591Z,12.37
2018-06-10T01:00:35.612Z,8.33
2018-06-10T01:03:03.643Z,9.33
2018-06-10T01:05:31.961Z,20.17
2018-06-10T01:07:59.861Z,8.60
2018-06-10T01:10:28.440Z,21.37
2018-06-10T01:12:56.992Z,9.33
2018-06-10T01:15:24.869Z,15.77
2018-06-10T01:17:53.103Z,8.40
2018-06-10T01:20:21.895Z,10.50
2018-06-10T01:22:49.840Z,9.67
2018-06-10T01:25:17.770Z,13.13
2018-06-10T01:27:45.733Z,10.07
2018-06-10T01:30:13.667Z,10.23
2018-06-10T01:32:41.497Z,11.63
2018-06-10T01:35:09.308Z,11.00
2018-06-10T01:37:37.128Z,12.50
2018-06-10T01:40:04.784Z,7.30
2018-06-10T01:42:32.653Z,13.90
2018-06-10T01:45:00.620Z,10.93
2018-06-10T01:47:28.571Z,10.80
2018-06-10T01:49:56.525Z,8.00
2018-06-10T01:52:24.383Z,17.67
2018-06-10T01:54:52.448Z,21.20
2018-06-10T01:57:20.511Z,12.93
2018-06-10T01:59:48.484Z,16.73
2018-06-10T02:02:16.506Z,9.60
2018-06-10T02:04:44.346Z,10.27
2018-06-10T02:07:12.054Z,7.73
2018-06-10T02:09:40.060Z,12.70
2018-06-10T02:12:08.010Z,16.10
2018-06-10T02:14:35.917Z,7.20
2018-06-10T02:17:04.074Z,9.87
2018-06-10T02:19:32.123Z,11.77
2018-06-10T02:22:00.331Z,11.33
2018-06-10T02:24:28.205Z,9.17
2018-06-10T02:26:56.000Z,8.23
2018-06-10T02:29:23.815Z,7.83
2018-06-10T02:31:51.738Z,10.67
2018-06-10T02:34:19.705Z,8.00
2018-06-10T02:36:47.629Z,7.73
2018-06-10T02:39:15.493Z,7.10
2018-06-10T02:41:43.596Z,10.73
2018-06-10T02:44:11.554Z,10.87
2018-06-10T02:46:39.414Z,9.07
2018-06-10T02:49:07.214Z,8.70
2018-06-10T02:51:34.911Z,11.40
2018-06-10T02:54:02.751Z,6.23
2018-06-10T02:56:31.633Z,8.00
2018-06-10T02:58:59.916Z,9.53
2018-06-10T03:01:28.098Z,11.03
2018-06-10T03:03:57.029Z,15.33
2018-06-10T03:06:24.974Z,10.60
2018-06-10T03:08:52.871Z,7.63
2018-06-10T03:11:20.922Z,9.20
2018-06-10T03:13:49.669Z,8.77
2018-06-10T03:16:17.584Z,8.43
2018-06-10T03:18:45.753Z,7.80
2018-06-10T03:21:13.766Z,12.43
2018-06-10T03:23:41.757Z,14.50
2018-06-10T03:26:09.754Z,7.53
2018-06-10T03:28:37.795Z,8.93
2018-06-10T03:31:05.808Z,9.03
2018-06-10T03:33:33.936Z,11.57
2018-06-10T03:36:02.052Z,10.37
2018-06-10T03:38:30.066Z,19.13
2018-06-10T03:40:58.157Z,10.80
2018-06-10T03:43:26.076Z,10.30
2018-06-10T03:45:54.069Z,7.70
2018-06-10T03:48:22.163Z,19.13
2018-06-10T03:50:50.108Z,8.20
2018-06-10T03:53:17.935Z,8.47
2018-06-10T03:55:45.686Z,6.43
2018-06-10T03:58:13.878Z,8.50
2018-06-10T04:00:41.794Z,6.57
2018-06-10T04:03:10.128Z,8.67
2018-06-10T04:05:37.958Z,8.93
2018-06-10T04:08:05.928Z,8.13
2018-06-10T04:10:33.898Z,6.77
2018-06-10T04:13:01.762Z,18.57
2018-06-10T04:15:29.726Z,7.23
2018-06-10T04:17:57.597Z,7.90
2018-06-10T04:20:25.490Z,10.37
2018-06-10T04:22:53.442Z,4.93
2018-06-10T04:25:21.476Z,10.93
2018-06-10T04:27:49.407Z,8.10
2018-06-10T04:30:17.451Z,6.10
2018-06-10T04:32:45.369Z,12.03
2018-06-10T04:35:14.301Z,7.10
2018-06-10T04:37:42.066Z,9.90
2018-06-10T04:40:09.873Z,5.47
2018-06-10T04:42:37.812Z,6.77
2018-06-10T04:45:06.347Z,5.57
2018-06-10T04:47:34.285Z,6.63
2018-06-10T04:50:02.038Z,6.23
2018-06-10T04:52:29.913Z,8.07
2018-06-10T04:54:57.978Z,9.83
2018-06-10T04:57:25.852Z,12.93
2018-06-10T04:59:53.721Z,6.03
2018-06-10T05:02:21.744Z,5.20
2018-06-10T05:04:49.869Z,10.43
2018-06-10T05:07:17.758Z,5.90
2018-06-10T05:09:45.699Z,11.03
2018-06-10T05:12:13.693Z,4.50
2018-06-10T05:14:41.636Z,7.50
2018-06-10T05:17:09.632Z,6.30
2018-06-10T05:19:37.576Z,7.37
2018-06-10T05:22:05.831Z,12.93
2018-06-10T05:24:33.830Z,6.77
2018-06-10T05:27:01.840Z,5.97
2018-06-10T05:29:30.354Z,6.40
2018-06-10T05:31:58.414Z,4.90
2018-06-10T05:34:26.342Z,8.20
2018-06-10T05:36:54.362Z,6.97
2018-06-10T05:39:22.244Z,11.40
2018-06-10T05:41:50.082Z,13.47
2018-06-10T05:44:18.728Z,3.30
2018-06-10T05:46:46.753Z,3.47
2018-06-10T05:49:14.857Z,4.90
2018-06-10T05:51:43.675Z,9.53
2018-06-10T05:54:11.516Z,6.43
2018-06-10T05:56:39.522Z,9.83
2018-06-10T05:59:07.486Z,3.80
2018-06-10T06:01:35.435Z,5.20
2018-06-10T06:04:03.529Z,7.83
2018-06-10T06:06:31.432Z,7.73
2018-06-10T06:08:59.648Z,5.57
2018-06-10T06:11:27.749Z,6.87
2018-06-10T06:13:55.782Z,8.57
2018-06-10T06:16:24.263Z,4.73
2018-06-10T06:18:52.288Z,5.47
2018-06-10T06:21:20.252Z,5.13
2018-06-10T06:23:48.451Z,7.23
2018-06-10T06:26:17.255Z,6.60
2018-06-10T06:28:45.272Z,9.10
2018-06-10T06:31:13.482Z,4.90
2018-06-10T06:33:41.487Z,4.70
2018-06-10T06:36:09.420Z,13.17
2018-06-10T06:38:37.439Z,3.70
2018-06-10T06:41:05.342Z,7.50
2018-06-10T06:43:33.451Z,8.50
2018-06-10T06:46:01.599Z,6.33
2018-06-10T06:48:29.748Z,5.13
2018-06-10T06:50:57.924Z,3.97
2018-06-10T06:53:25.992Z,6.87
2018-06-10T06:55:53.989Z,2.60
2018-06-10T06:58:21.943Z,9.10
2018-06-10T07:00:50.258Z,6.67
2018-06-10T07:03:18.245Z,12.70
2018-06-10T07:05:46.374Z,8.57
2018-06-10T07:08:14.591Z,4.37
2018-06-10T07:10:42.826Z,6.20
2018-06-10T07:13:10.905Z,14.43
2018-06-10T07:15:39.219Z,6.13
2018-06-10T07:18:07.391Z,12.07
2018-06-10T07:20:35.667Z,4.17
2018-06-10T07:23:03.790Z,8.13
2018-06-10T07:25:31.843Z,6.87
2018-06-10T07:27:59.610Z,4.47
2018-06-10T07:30:27.597Z,17.33
2018-06-10T07:32:55.781Z,3.73
2018-06-10T07:35:23.688Z,3.80
2018-06-10T07:37:51.873Z,11.23
2018-06-10T07:40:20.123Z,3.37
2018-06-10T07:42:47.993Z,5.40
2018-06-10T07:45:16.310Z,5.27
2018-06-10T07:47:44.253Z,5.33
2018-06-10T07:50:12.549Z,6.87
2018-06-10T07:52:40.503Z,5.50
2018-06-10T07:55:08.626Z,8.03
2018-06-10T07:57:36.599Z,12.40
2018-06-10T08:00:04.967Z,5.60
2018-06-10T08:02:33.406Z,8.80
2018-06-10T08:05:08.037Z,5.70
2018-06-10T08:07:35.948Z,5.80
2018-06-10T08:10:04.061Z,7.10
2018-06-10T08:12:31.827Z,10.93
2018-06-10T08:14:59.802Z,3.17
2018-06-10T08:17:27.868Z,7.97
2018-06-10T08:19:56.165Z,5.60
2018-06-10T08:22:24.210Z,7.23
2018-06-10T08:24:52.106Z,4.57
2018-06-10T08:27:20.432Z,7.70
2018-06-10T08:49:28.364Z,3.03
2018-06-10T08:51:55.972Z,9.90
2018-06-10T08:54:24.104Z,13.70
2018-06-10T08:56:52.882Z,5.67
2018-06-10T08:59:20.675Z,8.83
2018-06-10T09:01:49.391Z,17.37
2018-06-10T09:04:17.837Z,4.50
2018-06-10T09:06:47.403Z,8.77
2018-06-10T09:09:15.363Z,4.67
2018-06-10T09:11:43.237Z,5.27
2018-06-10T09:14:12.618Z,4.83
2018-06-10T09:16:40.629Z,8.00
2018-06-10T09:19:08.784Z,4.43
2018-06-10T09:21:36.784Z,5.57
2018-06-10T09:24:04.696Z,8.13
2018-06-10T09:26:32.770Z,3.70
2018-06-10T09:29:00.791Z,2.53
2018-06-10T09:31:30.023Z,6.30
2018-06-10T09:33:58.065Z,2.83
2018-06-10T09:36:26.159Z,9.07
2018-06-10T09:38:55.006Z,2.57
2018-06-10T09:41:23.110Z,6.40
2018-06-10T09:43:51.357Z,9.53
2018-06-10T09:46:19.621Z,9.87
2018-06-10T09:48:48.016Z,5.33
2018-06-10T09:51:16.813Z,7.03
2018-06-10T09:53:44.954Z,6.97
2018-06-10T09:56:13.483Z,3.53
2018-06-10T09:58:43.379Z,8.93
2018-06-10T10:01:12.599Z,4.77
2018-06-10T10:03:41.390Z,3.70
2018-06-10T10:06:10.380Z,6.77
2018-06-10T10:08:38.573Z,9.83
2018-06-10T10:11:06.473Z,5.17
2018-06-10T10:13:35.559Z,5.20
2018-06-10T10:16:03.664Z,8.40
2018-06-10T10:18:31.713Z,3.10
2018-06-10T10:21:00.272Z,6.20
2018-06-10T10:23:28.942Z,3.73
2018-06-10T10:25:57.363Z,10.13
2018-06-10T10:28:25.452Z,5.93
2018-06-10T10:30:54.527Z,13.90
2018-06-10T10:33:22.465Z,3.33
2018-06-10T10:35:56.742Z,5.33
2018-06-10T10:38:24.511Z,7.80
2018-06-10T10:40:52.500Z,4.53
2018-06-10T10:43:22.312Z,2.50
2018-06-10T10:45:50.362Z,6.30
2018-06-10T10:48:18.364Z,7.10
2018-06-10T10:50:46.540Z,12.03
2018-06-10T11:03:04.209Z,9.40
2018-06-10T11:05:32.100Z,2.17
2018-06-10T11:08:02.042Z,7.03
2018-06-10T11:10:32.020Z,4.27
2018-06-10T11:13:00.118Z,8.00
2018-06-10T11:15:28.888Z,5.80
2018-06-10T11:17:56.884Z,5.73
2018-06-10T11:20:27.455Z,3.27
2018-06-10T11:22:55.579Z,5.33
2018-06-10T11:25:23.616Z,6.60
2018-06-10T11:30:27.927Z,6.87
2018-06-10T11:33:02.403Z,6.70
2018-06-10T11:35:35.612Z,6.60
2018-06-10T11:38:04.479Z,4.73
2018-06-10T11:40:34.634Z,9.93
2018-06-10T11:43:02.610Z,10.37
2018-06-10T11:45:32.117Z,3.63
2018-06-10T11:48:00.360Z,4.17
2018-06-10T11:50:28.563Z,12.03
2018-06-10T11:52:56.301Z,4.13
2018-06-10T11:55:24.922Z,2.77
2018-06-10T11:57:53.554Z,5.30
2018-06-10T12:00:21.580Z,13.03
2018-06-10T12:02:49.617Z,6.20
2018-06-10T12:05:18.032Z,3.60
2018-06-10T12:07:46.050Z,2.37
2018-06-10T12:10:14.300Z,5.63
2018-06-10T12:12:42.261Z,3.63
2018-06-10T12:15:09.931Z,6.50
2018-06-10T12:17:37.883Z,9.37
2018-06-10T12:20:05.894Z,4.67
2018-06-10T12:22:35.586Z,4.43
2018-06-10T12:25:03.407Z,6.93
2018-06-10T12:27:31.970Z,8.03
2018-06-10T12:30:02.530Z,9.33
2018-06-10T12:32:31.382Z,2.70
2018-06-10T12:35:01.238Z,6.17
2018-06-10T12:37:29.411Z,4.50
2018-06-10T12:39:57.333Z,4.87
2018-06-10T12:42:27.421Z,9.17
2018-06-10T12:44:55.313Z,20.67
2018-06-10T12:47:23.354Z,23.93
2018-06-10T12:49:51.516Z,13.20
2018-06-10T12:52:19.785Z,21.53
2018-06-10T12:54:47.733Z,11.90
2018-06-10T12:57:16.037Z,5.23
2018-06-10T12:59:43.959Z,17.23
2018-06-10T13:02:11.857Z,10.63
2018-06-10T13:04:40.255Z,5.47
2018-06-10T13:07:08.470Z,7.90
2018-06-10T13:09:36.471Z,9.93
2018-06-10T13:12:05.624Z,10.70
2018-06-10T13:14:34.716Z,3.00
2018-06-10T13:17:04.236Z,7.27
2018-06-10T13:19:32.652Z,8.00
2018-06-10T13:22:00.944Z,12.70
2018-06-10T13:24:29.175Z,43.17
2018-06-10T13:26:56.803Z,18.00
2018-06-10T13:29:24.548Z,26.53
2018-06-10T13:31:52.465Z,23.73
2018-06-10T13:34:20.191Z,18.10
2018-06-10T13:36:48.059Z,23.83
2018-06-10T13:39:15.929Z,20.93
2018-06-10T13:41:43.800Z,20.77
2018-06-10T13:44:11.862Z,15.60
2018-06-10T13:46:39.668Z,16.33
2018-06-10T13:49:07.499Z,17.30
2018-06-10T13:51:35.474Z,17.57
2018-06-10T13:54:03.344Z,20.23
2018-06-10T13:56:31.129Z,14.30
2018-06-10T13:58:59.128Z,16.03
2018-06-10T14:01:27.240Z,19.57
2018-06-10T14:04:02.471Z,20.30
2018-06-10T14:06:30.409Z,25.27
2018-06-10T14:08:59.633Z,17.33
2018-06-10T14:11:27.310Z,15.40
2018-06-10T14:13:55.446Z,13.20
2018-06-10T14:16:29.993Z,13.20
2018-06-10T14:18:58.138Z,18.17
2018-06-10T14:21:26.207Z,14.83
2018-06-10T14:23:54.013Z,15.90
2018-06-10T14:26:22.290Z,14.17
2018-06-10T14:28:50.160Z,16.23
2018-06-10T14:31:18.304Z,33.83
2018-06-10T14:33:46.200Z,28.60
2018-06-10T14:36:14.289Z,14.63
2018-06-10T14:38:42.029Z,23.20
2018-06-10T14:41:10.243Z,31.00
2018-06-10T14:43:41.054Z,25.67
2018-06-10T14:46:09.113Z,28.10
2018-06-10T14:48:38.031Z,26.67
2018-06-10T14:51:06.166Z,19.93
2018-06-10T14:53:34.045Z,19.33
2018-06-10T14:56:02.283Z,17.67
2018-06-10T14:58:30.120Z,19.00
2018-06-10T15:00:58.055Z,22.50
2018-06-10T15:03:25.873Z,26.67
2018-06-10T15:05:53.979Z,18.43
2018-06-10T15:08:22.315Z,21.43
2018-06-10T15:10:50.282Z,22.60
2018-06-10T15:13:18.019Z,16.20
2018-06-10T15:15:45.769Z,17.03
2018-06-10T15:18:13.621Z,19.13
2018-06-10T15:20:41.482Z,19.13
2018-06-10T15:23:09.677Z,24.60
2018-06-10T15:25:37.415Z,17.10
2018-06-10T15:28:05.149Z,22.83
2018-06-10T15:30:33.089Z,26.87
2018-06-10T15:33:00.911Z,20.27
2018-06-10T15:35:28.825Z,16.60
2018-06-10T15:37:56.550Z,18.73
2018-06-10T15:40:24.213Z,17.93
2018-06-10T15:42:52.085Z,24.70
2018-06-10T15:45:20.361Z,14.03
2018-06-10T15:47:48.134Z,12.30
2018-06-10T15:50:16.385Z,15.77
2018-06-10T15:52:51.905Z,21.13
2018-06-10T15:55:19.775Z,17.87
2018-06-10T15:57:47.461Z,21.50
2018-06-10T16:00:15.234Z,19.63
2018-06-10T16:02:43.495Z,19.87
2018-06-10T16:05:11.276Z,17.90
2018-06-10T16:07:39.084Z,15.43
2018-06-10T16:10:06.813Z,17.50
2018-06-10T16:12:34.650Z,15.57
2018-06-10T16:15:02.544Z,20.70
2018-06-10T16:17:30.487Z,18.40
2018-06-10T16:19:58.454Z,19.50
2018-06-10T16:22:26.216Z,19.40
2018-06-10T16:24:54.477Z,22.50
2018-06-10T16:27:22.399Z,25.60
2018-06-10T16:29:50.436Z,23.60
2018-06-10T16:32:18.111Z,18.73
2018-06-10T16:34:46.021Z,17.90
2018-06-10T16:37:13.876Z,19.27
2018-06-10T16:39:41.724Z,23.20
2018-06-10T16:42:09.674Z,28.63
2018-06-10T16:44:37.576Z,20.83
2018-06-10T16:47:05.525Z,21.33
2018-06-10T16:49:33.507Z,16.40
2018-06-10T16:52:01.825Z,26.47
2018-06-10T16:54:29.563Z,22.77
2018-06-10T16:56:57.472Z,21.70
2018-06-10T16:59:25.559Z,22.43
2018-06-10T17:01:53.522Z,22.53
2018-06-10T17:04:21.438Z,24.13
2018-06-10T17:06:56.951Z,16.13
2018-06-10T17:09:24.893Z,21.87
2018-06-10T17:11:52.682Z,24.13
2018-06-10T17:14:20.877Z,28.80
2018-06-10T17:16:48.746Z,18.43
2018-06-10T17:19:16.579Z,30.77
2018-06-10T17:21:44.425Z,23.00
2018-06-10T17:24:12.316Z,29.83
2018-06-10T17:26:40.328Z,20.40
2018-06-10T17:29:08.135Z,29.83
2018-06-10T17:31:36.243Z,26.90
2018-06-10T17:34:04.340Z,28.90
2018-06-10T17:36:32.305Z,25.07
2018-06-10T17:39:00.231Z,21.47
2018-06-10T17:41:27.972Z,31.17
2018-06-10T17:43:56.073Z,25.87
2018-06-10T17:46:23.922Z,24.13
2018-06-10T17:48:51.701Z,30.40
2018-06-10T17:51:19.487Z,35.17
2018-06-10T17:53:47.315Z,28.10
2018-06-10T17:56:15.377Z,27.53
2018-06-10T17:58:44.019Z,32.57
2018-06-10T18:01:12.097Z,24.03
2018-06-10T18:03:39.936Z,27.47
2018-06-10T18:06:07.978Z,23.10
2018-06-10T18:08:36.009Z,26.40
2018-06-10T18:11:03.812Z,26.50
2018-06-10T18:13:31.599Z,38.83
2018-06-10T18:15:59.539Z,30.57
2018-06-10T18:18:27.363Z,31.30
2018-06-10T18:20:55.490Z,31.07
2018-06-10T18:23:23.613Z,36.87
2018-06-10T18:25:51.638Z,33.50
2018-06-10T18:28:19.600Z,34.10
2018-06-10T18:30:47.540Z,28.20
2018-06-10T18:33:15.738Z,30.83
2018-06-10T18:35:43.632Z,35.17
2018-06-10T18:38:11.831Z,34.20
2018-06-10T18:40:39.771Z,30.03
2018-06-10T18:43:07.867Z,28.43
2018-06-10T18:45:39.785Z,30.70
2018-06-10T18:48:07.696Z,28.43
2018-06-10T18:50:35.883Z,19.47
2018-06-10T18:53:03.867Z,17.40
2018-06-10T18:55:32.046Z,11.97
2018-06-10T18:58:00.028Z,15.60
2018-06-10T19:00:27.999Z,30.53
2018-06-10T19:02:56.176Z,8.57
2018-06-10T19:05:24.281Z,11.23
2018-06-10T19:07:52.582Z,11.73
2018-06-10T19:10:21.880Z,18.70
2018-06-10T19:12:51.124Z,13.37
2018-06-10T19:15:19.453Z,19.47
2018-06-10T19:17:47.441Z,10.90
2018-06-10T19:20:15.369Z,15.00
2018-06-10T19:22:43.464Z,12.20
2018-06-10T19:25:11.497Z,11.37
2018-06-10T19:27:39.659Z,13.13
2018-06-10T19:30:07.856Z,11.80
2018-06-10T19:32:35.964Z,13.57
2018-06-10T19:35:04.069Z,16.50
2018-06-10T19:37:32.676Z,16.17
2018-06-10T19:40:01.160Z,17.27
2018-06-10T19:42:29.576Z,22.73
2018-06-10T19:44:58.994Z,18.03
2018-06-10T19:47:26.858Z,24.40
2018-06-10T19:49:55.306Z,22.30
2018-06-10T19:52:24.400Z,19.10
2018-06-10T19:54:52.391Z,16.03
2018-06-10T19:57:20.430Z,16.93
2018-06-10T19:59:48.188Z,14.43
2018-06-10T20:02:16.521Z,17.13
2018-06-10T20:04:44.608Z,24.37
2018-06-10T20:07:12.536Z,21.20
2018-06-10T20:09:40.692Z,21.40
2018-06-10T20:12:08.650Z,22.43
2018-06-10T20:14:37.100Z,24.13
2018-06-10T20:17:05.903Z,23.50
2018-06-10T20:19:34.097Z,21.63
2018-06-10T20:22:05.507Z,26.90
2018-06-10T20:24:33.394Z,23.13
2018-06-10T20:27:02.995Z,22.90
2018-06-10T20:29:31.172Z,26.33
2018-06-10T20:31:59.362Z,30.00
2018-06-10T20:34:27.602Z,25.87
2018-06-10T20:36:55.904Z,28.50
2018-06-10T20:39:25.324Z,30.23
2018-06-10T20:41:53.276Z,32.57
2018-06-10T20:44:21.701Z,37.47
2018-06-10T20:46:50.243Z,32.67
2018-06-10T20:49:18.314Z,34.47
2018-06-10T20:51:46.475Z,37.33
2018-06-10T20:54:15.362Z,32.47
2018-06-10T20:56:43.896Z,36.77
2018-06-10T20:59:12.676Z,32.00
2018-06-10T21:01:41.163Z,40.43
2018-06-10T21:04:10.295Z,37.90
2018-06-10T21:06:38.463Z,36.33
2018-06-10T21:09:07.771Z,42.57
2018-06-10T21:11:36.080Z,39.70
2018-06-10T21:14:14.046Z,30.87
2018-06-10T22:06:17.604Z,27.23
2018-06-10T22:47:43.329Z,36.37
2018-06-10T22:50:29.467Z,36.30
2018-06-10T23:07:40.147Z,45.07
2018-06-10T23:52:45.692Z,33.87
2018-06-10T23:58:07.945Z,31.00
